createdAt,value
2022-08-03T00:00:28.444Z,2.45
2022-08-03T00:02:55.137Z,2.20
2022-08-03T00:05:21.914Z,2.33
2022-08-03T00:07:49.535Z,2.30
2022-08-03T00:10:16.858Z,2.20
2022-08-03T00:12:43.531Z,2.35
2022-08-03T00:15:14.973Z,2.60
2022-08-03T00:17:52.394Z,2.30
2022-08-03T00:20:21.635Z,2.40
2022-08-03T00:22:48.749Z,2.28
2022-08-03T00:25:15.485Z,2.60
2022-08-03T00:27:42.120Z,2.40
2022-08-03T00:30:09.250Z,2.63
2022-08-03T00:32:36.093Z,2.58
2022-08-03T00:35:04.335Z,2.20
2022-08-03T00:37:40.926Z,2.60
2022-08-03T00:40:11.416Z,2.55
2022-08-03T00:42:55.182Z,2.38
2022-08-03T00:45:32.883Z,2.50
2022-08-03T00:47:59.899Z,2.42
2022-08-03T00:50:28.724Z,2.70
2022-08-03T00:52:57.924Z,2.10
2022-08-03T00:55:25.312Z,2.28
2022-08-03T00:57:52.273Z,2.22
2022-08-03T01:00:22.755Z,2.40
2022-08-03T01:02:50.103Z,2.70
2022-08-03T01:05:17.082Z,2.35
2022-08-03T01:07:54.219Z,2.60
2022-08-03T01:10:33.170Z,2.55
2022-08-03T01:13:06.034Z,2.40
2022-08-03T01:15:48.924Z,2.40
2022-08-03T01:18:22.880Z,2.20
2022-08-03T01:20:53.536Z,2.50
2022-08-03T01:23:34.769Z,2.80
2022-08-03T01:26:38.988Z,2.55
2022-08-03T01:29:11.580Z,2.53
2022-08-03T01:32:59.512Z,2.50
2022-08-03T01:35:02.097Z,2.40
2022-08-03T01:37:38.775Z,2.78
2022-08-03T01:40:06.676Z,2.38
2022-08-03T01:42:34.035Z,2.30
2022-08-03T01:45:01.738Z,2.65
2022-08-03T01:47:30.152Z,2.67
2022-08-03T01:49:57.979Z,2.85
2022-08-03T01:52:25.097Z,2.78
2022-08-03T01:54:52.736Z,2.40
2022-08-03T01:57:20.168Z,2.97
2022-08-03T01:59:48.675Z,2.75
2022-08-03T02:02:33.062Z,2.72
2022-08-03T02:05:01.277Z,2.78
2022-08-03T02:07:29.290Z,2.90
2022-08-03T02:09:56.735Z,2.97
2022-08-03T02:12:25.355Z,2.72
2022-08-03T02:14:52.136Z,2.80
2022-08-03T02:17:19.186Z,3.00
2022-08-03T02:20:06.732Z,2.65
2022-08-03T02:22:33.917Z,2.72
2022-08-03T02:25:00.603Z,2.80
2022-08-03T02:27:29.303Z,2.70
2022-08-03T02:30:05.863Z,2.70
2022-08-03T02:32:37.916Z,2.90
2022-08-03T02:35:07.272Z,2.53
2022-08-03T02:37:36.389Z,2.92
2022-08-03T02:40:05.394Z,3.08
2022-08-03T02:42:33.266Z,3.00
2022-08-03T02:45:03.837Z,2.95
2022-08-03T02:47:53.432Z,2.80
2022-08-03T02:50:19.151Z,2.60
2022-08-03T02:52:46.486Z,3.13
2022-08-03T02:55:15.057Z,2.83
2022-08-03T02:57:43.804Z,3.40
2022-08-03T03:00:11.075Z,2.92
2022-08-03T03:02:38.132Z,3.17
2022-08-03T03:05:56.009Z,3.22
2022-08-03T03:07:53.185Z,3.38
2022-08-03T03:10:25.075Z,2.97
2022-08-03T03:12:55.578Z,3.63
2022-08-03T03:15:23.631Z,3.03
2022-08-03T03:17:51.775Z,3.72
2022-08-03T03:20:29.498Z,3.72
2022-08-03T03:22:58.906Z,3.35
2022-08-03T03:25:25.602Z,3.40
2022-08-03T03:27:52.528Z,3.30
2022-08-03T03:30:19.249Z,3.22
2022-08-03T03:32:45.920Z,3.10
2022-08-03T03:35:14.026Z,3.55
2022-08-03T03:37:40.794Z,3.13
2022-08-03T03:40:09.093Z,3.38
2022-08-03T03:42:36.033Z,3.97
2022-08-03T03:45:09.812Z,3.72
2022-08-03T03:47:36.935Z,3.45
2022-08-03T03:50:07.180Z,3.63
2022-08-03T03:52:34.047Z,3.40
2022-08-03T03:55:01.629Z,3.80
2022-08-03T03:57:29.551Z,4.10
2022-08-03T03:59:56.582Z,4.00
2022-08-03T04:02:23.448Z,3.97
2022-08-03T04:05:08.563Z,3.80
2022-08-03T04:08:22.161Z,4.15
2022-08-03T04:11:02.518Z,3.78
2022-08-03T04:13:35.927Z,4.28
2022-08-03T04:16:03.388Z,3.65
2022-08-03T04:18:31.713Z,4.18
2022-08-03T04:21:03.497Z,4.00
2022-08-03T04:23:33.068Z,3.72
2022-08-03T04:26:02.231Z,4.40
2022-08-03T04:28:32.011Z,3.85
2022-08-03T04:31:03.719Z,4.57
2022-08-03T04:33:32.754Z,3.90
2022-08-03T04:36:02.879Z,4.07
2022-08-03T04:38:31.906Z,3.90
2022-08-03T04:40:59.778Z,4.28
2022-08-03T04:43:26.947Z,4.13
2022-08-03T04:45:54.632Z,4.57
2022-08-03T04:48:21.546Z,3.63
2022-08-03T04:50:48.447Z,4.03
2022-08-03T04:53:16.683Z,4.20
2022-08-03T04:55:43.583Z,3.47
2022-08-03T04:58:10.422Z,3.65
2022-08-03T05:00:37.038Z,4.15
2022-08-03T05:03:03.650Z,3.80
2022-08-03T05:05:50.573Z,3.97
2022-08-03T05:08:20.620Z,4.15
2022-08-03T05:10:54.663Z,4.28
2022-08-03T05:13:21.291Z,3.90
2022-08-03T05:15:47.990Z,4.03
2022-08-03T05:18:14.914Z,4.32
2022-08-03T05:20:41.708Z,3.88
2022-08-03T05:23:08.334Z,3.83
2022-08-03T05:25:38.005Z,3.90
2022-08-03T05:28:06.309Z,4.35
2022-08-03T05:30:34.407Z,4.68
2022-08-03T05:33:03.078Z,4.05
2022-08-03T05:35:57.776Z,4.57
2022-08-03T05:38:28.036Z,3.95
2022-08-03T05:41:21.891Z,4.65
2022-08-03T05:43:47.316Z,4.47
2022-08-03T05:46:14.402Z,4.65
2022-08-03T05:48:42.207Z,4.78
2022-08-03T05:51:11.521Z,4.55
2022-08-03T05:53:45.333Z,4.78
2022-08-03T05:56:14.666Z,4.00
2022-08-03T05:58:53.096Z,3.95
2022-08-03T06:01:23.910Z,4.13
2022-08-03T06:03:52.180Z,4.47
2022-08-03T06:06:18.843Z,5.13
2022-08-03T06:08:46.079Z,3.42
2022-08-03T06:11:13.247Z,4.10
2022-08-03T06:13:40.401Z,4.18
2022-08-03T06:16:07.217Z,4.05
2022-08-03T06:18:34.245Z,3.63
2022-08-03T06:21:14.139Z,4.00
2022-08-03T06:23:54.683Z,4.05
2022-08-03T06:26:24.013Z,3.70
2022-08-03T06:28:51.367Z,4.47
2022-08-03T06:31:20.969Z,3.97
2022-08-03T06:34:34.505Z,3.97
2022-08-03T06:36:34.422Z,3.85
2022-08-03T06:39:01.316Z,3.70
2022-08-03T06:41:28.142Z,3.67
2022-08-03T06:44:03.334Z,4.57
2022-08-03T06:46:31.062Z,4.63
2022-08-03T06:48:57.838Z,4.32
2022-08-03T06:52:02.651Z,4.25
2022-08-03T06:54:12.307Z,4.22
2022-08-03T06:56:39.046Z,4.05
2022-08-03T06:59:05.758Z,3.70
2022-08-03T07:01:32.434Z,3.47
2022-08-03T07:04:00.533Z,3.97
2022-08-03T07:06:27.342Z,3.67
2022-08-03T07:08:59.004Z,3.65
2022-08-03T07:11:26.319Z,3.30
2022-08-03T07:13:52.932Z,3.50
2022-08-03T07:16:20.084Z,3.28
2022-08-03T07:18:46.904Z,3.50
2022-08-03T07:21:13.710Z,3.78
2022-08-03T07:23:40.355Z,3.28
2022-08-03T07:26:07.005Z,3.63
2022-08-03T07:28:33.829Z,3.42
2022-08-03T07:31:00.523Z,3.40
2022-08-03T07:33:27.150Z,3.45
2022-08-03T07:35:53.985Z,3.10
2022-08-03T07:38:21.195Z,5.80
2022-08-03T07:40:48.227Z,3.55
2022-08-03T07:43:14.870Z,3.78
2022-08-03T07:45:41.595Z,3.03
2022-08-03T07:48:12.079Z,3.17
2022-08-03T07:50:39.063Z,2.65
2022-08-03T07:53:05.823Z,3.47
2022-08-03T07:55:32.574Z,2.90
2022-08-03T07:58:02.714Z,3.13
2022-08-03T08:00:29.732Z,3.25
2022-08-03T08:02:56.370Z,2.75
2022-08-03T08:05:23.192Z,2.92
2022-08-03T08:07:52.260Z,2.92
2022-08-03T08:10:19.759Z,2.95
2022-08-03T08:12:46.858Z,3.20
2022-08-03T08:15:13.615Z,2.80
2022-08-03T08:17:51.969Z,2.38
2022-08-03T08:20:30.572Z,2.97
2022-08-03T08:23:10.250Z,2.90
2022-08-03T08:25:54.146Z,2.35
2022-08-03T08:28:32.558Z,2.38
2022-08-03T08:31:01.012Z,2.90
2022-08-03T08:33:42.098Z,2.70
2022-08-03T08:36:15.561Z,2.50
2022-08-03T08:38:44.584Z,3.42
2022-08-03T08:41:12.941Z,2.78
2022-08-03T08:43:39.638Z,2.80
2022-08-03T08:46:10.261Z,3.35
2022-08-03T08:48:40.745Z,2.70
2022-08-03T08:51:08.892Z,2.75
2022-08-03T08:53:37.692Z,2.00
2022-08-03T08:56:04.864Z,2.60
2022-08-03T08:58:38.918Z,2.30
2022-08-03T09:01:05.966Z,2.40
2022-08-03T09:03:35.833Z,2.45
2022-08-03T09:06:04.894Z,2.42
2022-08-03T09:08:33.402Z,2.70
2022-08-03T09:11:00.367Z,2.58
2022-08-03T09:13:27.391Z,2.53
2022-08-03T09:16:12.555Z,2.22
2022-08-03T09:18:40.333Z,2.15
2022-08-03T09:21:31.584Z,2.33
2022-08-03T09:24:03.784Z,2.65
2022-08-03T09:26:32.113Z,2.67
2022-08-03T09:29:09.711Z,2.35
2022-08-03T09:31:44.235Z,2.40
2022-08-03T09:34:13.319Z,2.50
2022-08-03T09:36:45.903Z,2.33
2022-08-03T09:39:41.146Z,2.13
2022-08-03T09:42:10.692Z,2.10
2022-08-03T09:44:39.822Z,2.22
2022-08-03T09:47:06.756Z,2.08
2022-08-03T09:49:33.550Z,2.28
2022-08-03T09:52:32.645Z,2.10
2022-08-03T09:54:53.069Z,2.67
2022-08-03T09:57:24.498Z,2.00
2022-08-03T10:00:02.975Z,2.00
2022-08-03T10:02:40.422Z,2.10
2022-08-03T10:05:09.519Z,3.03
2022-08-03T10:07:47.785Z,5.40
2022-08-03T10:10:32.056Z,2.13
2022-08-03T10:13:00.246Z,2.63
2022-08-03T10:16:23.902Z,2.70
2022-08-03T10:18:14.345Z,1.85
2022-08-03T10:20:51.146Z,2.10
2022-08-03T10:23:18.911Z,1.73
2022-08-03T10:25:53.327Z,1.90
2022-08-03T10:28:21.306Z,4.25
2022-08-03T10:30:50.338Z,2.05
2022-08-03T10:33:49.823Z,1.50
2022-08-03T10:36:11.176Z,1.55
2022-08-03T10:38:41.400Z,1.80
2022-08-03T10:41:09.061Z,2.00
2022-08-03T10:43:56.781Z,1.83
2022-08-03T10:46:23.527Z,1.70
2022-08-03T10:48:53.678Z,1.92
2022-08-03T10:51:21.121Z,1.77
2022-08-03T10:53:54.490Z,4.32
2022-08-03T10:56:52.713Z,1.73
2022-08-03T10:59:59.108Z,1.33
2022-08-03T11:03:04.322Z,1.63
2022-08-03T11:05:33.467Z,1.50
2022-08-03T11:08:28.893Z,2.05
2022-08-03T11:10:58.698Z,1.55
2022-08-03T11:13:33.979Z,1.50
2022-08-03T11:16:06.647Z,2.47
2022-08-03T11:18:35.547Z,1.80
2022-08-03T11:21:02.899Z,2.20
2022-08-03T11:24:03.033Z,1.52
2022-08-03T11:26:32.953Z,1.50
2022-08-03T11:29:28.996Z,1.80
2022-08-03T11:31:55.685Z,1.90
2022-08-03T11:34:27.617Z,1.58
2022-08-03T11:37:22.650Z,1.60
2022-08-03T11:39:51.769Z,1.90
2022-08-03T11:42:24.813Z,1.73
2022-08-03T11:44:59.307Z,1.80
2022-08-03T11:47:29.996Z,1.50
2022-08-03T11:50:00.263Z,1.85
2022-08-03T11:52:28.924Z,1.70
2022-08-03T11:54:56.550Z,2.00
2022-08-03T11:59:02.706Z,1.90
2022-08-03T12:00:37.506Z,1.83
2022-08-03T12:03:09.771Z,2.00
2022-08-03T12:05:40.819Z,1.48
2022-08-03T12:08:10.028Z,2.20
2022-08-03T12:10:38.033Z,2.28
2022-08-03T12:14:44.358Z,1.60
2022-08-03T12:15:55.872Z,1.60
2022-08-03T12:18:23.717Z,1.50
2022-08-03T12:20:51.937Z,2.35
2022-08-03T12:23:19.495Z,1.90
2022-08-03T12:25:47.632Z,1.80
2022-08-03T12:28:37.082Z,1.70
2022-08-03T12:31:11.888Z,1.77
2022-08-03T12:33:58.996Z,2.30
2022-08-03T12:36:27.378Z,1.60
2022-08-03T12:39:00.079Z,2.70
2022-08-03T12:41:38.936Z,4.40
2022-08-03T12:44:07.390Z,4.50
2022-08-03T12:46:35.482Z,3.78
2022-08-03T12:49:05.848Z,2.05
2022-08-03T12:51:45.477Z,1.83
2022-08-03T12:54:24.586Z,2.10
2022-08-03T12:57:08.144Z,1.60
2022-08-03T12:59:40.709Z,1.95
2022-08-03T13:02:23.595Z,2.75
2022-08-03T13:04:54.383Z,1.60
2022-08-03T13:07:22.320Z,1.80
2022-08-03T13:09:51.042Z,1.90
2022-08-03T13:12:22.258Z,1.40
2022-08-03T13:14:51.975Z,1.75
2022-08-03T13:17:19.561Z,1.80
2022-08-03T13:19:48.903Z,1.92
2022-08-03T13:22:20.793Z,1.45
2022-08-03T13:24:58.213Z,1.17
2022-08-03T13:28:03.722Z,1.55
2022-08-03T13:30:13.140Z,1.38
2022-08-03T13:32:40.104Z,1.60
2022-08-03T13:35:12.337Z,1.45
2022-08-03T13:37:43.449Z,1.30
2022-08-03T13:40:14.882Z,1.52
2022-08-03T13:42:41.790Z,2.08
2022-08-03T13:45:10.475Z,1.85
2022-08-03T13:47:39.689Z,2.40
2022-08-03T13:50:06.668Z,2.05
2022-08-03T13:52:34.667Z,2.45
2022-08-03T13:55:03.137Z,3.20
2022-08-03T13:58:02.613Z,3.42
2022-08-03T14:00:27.987Z,3.15
2022-08-03T14:03:15.368Z,1.92
2022-08-03T14:05:45.392Z,2.17
2022-08-03T14:08:12.276Z,1.65
2022-08-03T14:10:42.459Z,1.60
2022-08-03T14:13:11.521Z,1.20
2022-08-03T14:15:38.818Z,1.70
2022-08-03T14:18:15.886Z,1.40
2022-08-03T14:20:56.381Z,1.55
2022-08-03T14:23:24.040Z,1.10
2022-08-03T14:25:52.272Z,1.17
2022-08-03T14:28:21.094Z,1.08
2022-08-03T14:30:48.598Z,1.48
2022-08-03T14:33:15.585Z,1.00
2022-08-03T14:35:42.423Z,2.95
2022-08-03T14:38:09.050Z,1.42
2022-08-03T14:40:35.740Z,1.30
2022-08-03T14:43:02.592Z,1.40
2022-08-03T14:45:29.537Z,1.40
2022-08-03T14:50:10.551Z,1.75
2022-08-03T14:50:48.372Z,2.65
2022-08-03T14:53:20.938Z,2.47
2022-08-03T14:55:52.749Z,1.40
2022-08-03T14:58:21.388Z,1.45
2022-08-03T15:00:49.859Z,1.30
2022-08-03T15:03:17.627Z,1.10
2022-08-03T15:05:44.706Z,1.10
2022-08-03T15:08:11.876Z,1.45
2022-08-03T15:10:43.830Z,1.35
2022-08-03T15:13:12.975Z,1.20
2022-08-03T15:15:40.153Z,1.33
2022-08-03T15:18:24.514Z,1.10
2022-08-03T15:20:51.561Z,1.60
2022-08-03T15:23:23.418Z,1.00
2022-08-03T15:26:06.493Z,1.50
2022-08-03T15:28:41.308Z,1.23
2022-08-03T15:31:07.987Z,1.25
2022-08-03T15:33:35.304Z,1.13
2022-08-03T15:36:02.359Z,1.30
2022-08-03T15:38:29.107Z,1.15
2022-08-03T15:41:08.723Z,1.30
2022-08-03T15:44:09.191Z,1.90
2022-08-03T15:46:36.118Z,1.50
2022-08-03T15:49:06.013Z,1.15
2022-08-03T15:51:32.829Z,1.20
2022-08-03T15:53:59.713Z,1.10
2022-08-03T15:56:30.653Z,1.00
2022-08-03T15:59:09.945Z,1.20
2022-08-03T16:01:41.597Z,1.23
2022-08-03T16:04:10.828Z,1.05
2022-08-03T16:06:42.526Z,1.25
2022-08-03T16:09:24.279Z,1.20
2022-08-03T16:11:57.957Z,2.30
2022-08-03T16:14:34.693Z,1.10
2022-08-03T16:17:04.902Z,1.08
2022-08-03T16:19:31.740Z,1.08
2022-08-03T16:21:59.036Z,1.00
2022-08-03T16:24:29.764Z,1.15
2022-08-03T16:26:56.853Z,1.38
2022-08-03T16:29:24.834Z,1.00
2022-08-03T16:31:52.550Z,1.23
2022-08-03T16:34:20.021Z,1.20
2022-08-03T16:36:46.903Z,1.70
2022-08-03T16:39:13.899Z,1.50
2022-08-03T16:42:01.074Z,1.23
2022-08-03T16:44:33.102Z,1.83
2022-08-03T16:49:55.030Z,1.27
2022-08-03T16:52:18.126Z,1.40
2022-08-03T16:54:53.243Z,1.63
2022-08-03T16:57:55.639Z,1.70
2022-08-03T17:00:11.965Z,1.35
2022-08-03T17:02:48.153Z,1.85
2022-08-03T17:05:24.556Z,1.88
2022-08-03T17:07:57.042Z,1.38
2022-08-03T17:10:27.521Z,1.70
2022-08-03T17:13:00.077Z,1.80
2022-08-03T17:15:38.342Z,1.30
2022-08-03T17:18:25.591Z,1.48
2022-08-03T17:20:54.361Z,1.35
2022-08-03T17:23:48.059Z,1.45
2022-08-03T17:26:21.565Z,2.15
2022-08-03T17:31:49.633Z,1.40
2022-08-03T17:34:18.854Z,1.40
2022-08-03T17:39:57.649Z,1.30
2022-08-03T17:42:33.107Z,1.30
2022-08-03T17:45:03.901Z,1.77
2022-08-03T17:47:42.032Z,2.53
2022-08-03T17:50:25.026Z,1.20
2022-08-03T17:53:06.721Z,1.30
2022-08-03T17:55:55.631Z,1.27
2022-08-03T17:59:08.715Z,1.33
2022-08-03T18:02:12.267Z,1.50
2022-08-03T18:05:16.695Z,1.10
2022-08-03T18:12:12.389Z,1.80
2022-08-03T18:15:08.531Z,1.60
2022-08-03T18:17:55.621Z,1.77
2022-08-03T18:20:41.101Z,1.75
2022-08-03T18:23:36.213Z,2.35
2022-08-03T18:26:17.022Z,1.88
2022-08-03T18:29:04.338Z,1.73
2022-08-03T18:32:01.360Z,3.22
2022-08-03T18:41:32.754Z,3.03
2022-08-03T18:44:53.915Z,2.13
2022-08-03T18:48:08.464Z,1.63
2022-08-03T18:51:01.125Z,3.53
2022-08-03T18:54:02.865Z,2.50
2022-08-03T18:57:19.726Z,1.60
2022-08-03T19:00:42.336Z,1.40
2022-08-03T19:03:20.571Z,1.65
2022-08-03T19:06:02.798Z,2.08
2022-08-03T19:08:50.712Z,1.90
2022-08-03T19:11:28.009Z,1.95
2022-08-03T19:13:56.975Z,2.05
2022-08-03T19:16:38.799Z,2.30
2022-08-03T19:19:11.064Z,2.30
2022-08-03T19:21:41.385Z,2.00
2022-08-03T19:26:55.979Z,2.28
2022-08-03T19:29:25.591Z,2.13
2022-08-03T19:32:19.180Z,1.80
2022-08-03T19:34:47.889Z,2.13
2022-08-03T19:37:21.959Z,2.03
2022-08-03T19:39:56.731Z,2.58
2022-08-03T19:42:32.147Z,2.70
2022-08-03T19:45:11.278Z,3.05
2022-08-03T19:47:58.117Z,2.30
2022-08-03T19:50:25.337Z,2.22
2022-08-03T19:52:52.814Z,2.70
2022-08-03T19:55:22.763Z,2.13
2022-08-03T19:57:57.092Z,3.15
2022-08-03T20:00:26.472Z,2.30
2022-08-03T20:02:56.292Z,2.33
2022-08-03T20:05:23.378Z,2.10
2022-08-03T20:07:50.450Z,2.30
2022-08-03T20:10:20.211Z,2.33
2022-08-03T20:12:49.618Z,2.85
2022-08-03T20:15:22.200Z,2.83
2022-08-03T20:17:58.648Z,2.90
2022-08-03T20:20:31.312Z,2.58
2022-08-03T20:22:59.544Z,3.17
2022-08-03T20:25:38.579Z,2.97
2022-08-03T20:28:20.631Z,1.95
2022-08-03T20:30:53.872Z,2.80
2022-08-03T20:33:27.816Z,2.53
2022-08-03T20:36:08.169Z,2.13
2022-08-03T20:38:43.872Z,2.47
2022-08-03T20:41:18.015Z,2.15
2022-08-03T20:43:45.337Z,2.00
2022-08-03T20:46:31.075Z,2.22
2022-08-03T20:49:03.918Z,2.80
2022-08-03T20:51:49.879Z,2.80
2022-08-03T20:54:29.423Z,2.25
2022-08-03T20:57:00.361Z,2.22
2022-08-03T20:59:35.092Z,2.22
2022-08-03T21:02:05.719Z,2.30
2022-08-03T21:04:32.432Z,2.95
2022-08-03T21:07:16.426Z,2.15
2022-08-03T21:09:57.144Z,2.38
2022-08-03T21:12:35.886Z,2.90
2022-08-03T21:13:02.098Z,1.80
2022-08-03T21:13:04.133Z,2.47
2022-08-03T21:15:06.180Z,2.97
2022-08-03T21:17:42.418Z,3.13
2022-08-03T21:20:11.188Z,3.25
2022-08-03T21:22:39.473Z,3.30
2022-08-03T21:25:09.418Z,3.10
2022-08-03T21:27:36.829Z,3.42
2022-08-03T21:30:08.892Z,2.60
2022-08-03T21:32:40.289Z,2.90
2022-08-03T21:35:15.128Z,2.67
2022-08-03T21:37:43.234Z,2.75
2022-08-03T21:40:12.429Z,2.17
2022-08-03T21:42:40.886Z,2.40
2022-08-03T21:45:15.158Z,2.38
2022-08-03T21:47:43.871Z,2.72
2022-08-03T21:50:13.201Z,3.08
2022-08-03T21:52:45.383Z,2.72
2022-08-03T21:55:18.412Z,2.45
2022-08-03T21:57:51.832Z,2.30
2022-08-03T22:00:21.862Z,3.15
2022-08-03T22:02:58.113Z,2.95
2022-08-03T22:05:29.199Z,3.00
2022-08-03T22:08:11.135Z,3.05
2022-08-03T22:10:40.251Z,2.83
2022-08-03T22:13:06.967Z,2.80
2022-08-03T22:15:33.646Z,2.58
2022-08-03T22:18:03.644Z,2.72
2022-08-03T22:20:30.759Z,2.75
2022-08-03T22:23:01.252Z,2.45
2022-08-03T22:25:30.642Z,2.53
2022-08-03T22:28:00.185Z,2.58
2022-08-03T22:30:27.103Z,2.50
2022-08-03T22:32:56.198Z,2.00
2022-08-03T22:35:24.645Z,3.33
2022-08-03T22:37:54.165Z,2.53
2022-08-03T22:40:21.130Z,2.55
2022-08-03T22:42:51.943Z,2.97
2022-08-03T22:46:07.385Z,2.45
2022-08-03T22:48:08.120Z,2.67
2022-08-03T22:50:35.394Z,2.53
2022-08-03T22:53:02.398Z,2.40
2022-08-03T22:55:29.451Z,2.50
2022-08-03T22:57:57.320Z,2.17
2022-08-03T23:00:24.358Z,2.25
2022-08-03T23:02:52.763Z,2.35
2022-08-03T23:06:02.635Z,3.17
2022-08-03T23:08:23.161Z,2.65
2022-08-03T23:10:51.053Z,2.60
2022-08-03T23:13:18.626Z,2.50
2022-08-03T23:15:51.316Z,2.88
2022-08-03T23:18:19.447Z,2.50
2022-08-03T23:20:50.347Z,2.38
2022-08-03T23:23:19.832Z,1.98
2022-08-03T23:25:48.040Z,2.10
2022-08-03T23:28:16.356Z,2.50
2022-08-03T23:30:47.441Z,2.15
2022-08-03T23:33:14.764Z,2.20
2022-08-03T23:36:29.552Z,2.28
2022-08-03T23:38:52.289Z,2.30
2022-08-03T23:41:26.300Z,2.20
2022-08-03T23:43:54.234Z,2.60
2022-08-03T23:46:24.182Z,2.30
2022-08-03T23:48:51.369Z,2.70
2022-08-03T23:51:38.488Z,2.10
2022-08-03T23:54:34.186Z,2.20
2022-08-03T23:57:09.559Z,2.15
